Time;durP1;ratioP1;P1;durP2;ratioP2;P2;SDS_P1;SDS_P2;PMS_P1;PMS_P2;Temp;Humidity;BMP_temperature;BMP_pressure;BME280_temperature;BME280_humidity;BME280_pressure;Samples;Min_cycle;Max_cycle;Signal;HPM_P1;HPM_P2
2022/09/02 00:01:25;;;;;;;6.63;5.13;;;;;;;17.00;66.12;92846.69;2070789;69;20136;-76
2022/09/02 00:03:51;;;;;;;;;;;;;;;17.16;64.57;92843.72;2071378;69;20585;-76
2022/09/02 00:06:18;;;;;;;5.60;4.85;;;;;;;17.07;64.79;92837.00;2071131;69;20491;-76
2022/09/02 00:08:44;;;;;;;6.22;4.88;;;;;;;17.00;65.17;92835.31;2070970;69;20202;-77
2022/09/02 00:11:14;;;;;;;6.53;4.95;;;;;;;17.12;64.70;92837.88;2067498;69;20160;-77
2022/09/02 00:13:39;;;;;;;6.53;5.00;;;;;;;17.01;65.00;92828.97;2070852;69;20147;-77
2022/09/02 00:16:05;;;;;;;6.82;5.38;;;;;;;16.48;67.53;92828.91;2070737;69;20167;-76
2022/09/02 00:18:32;;;;;;;9.20;5.80;;;;;;;16.23;69.16;92827.19;2067323;69;20180;-77
2022/09/02 00:20:57;;;;;;;6.95;5.47;;;;;;;16.55;67.76;92829.91;2070818;69;20600;-78
2022/09/02 00:23:24;;;;;;;6.20;5.45;;;;;;;16.74;66.70;92827.19;2067362;69;20240;-75
2022/09/02 00:25:51;;;;;;;7.03;5.25;;;;;;;16.80;66.62;92823.84;2070554;69;20239;-77
2022/09/02 00:28:17;;;;;;;9.52;5.40;;;;;;;16.81;66.75;92822.47;2070789;69;20152;-77
2022/09/02 00:30:43;;;;;;;8.27;5.30;;;;;;;16.80;66.41;92823.84;2070944;69;20147;-77
2022/09/02 00:33:12;;;;;;;9.32;5.03;;;;;;;16.84;66.34;92826.13;2070909;69;20152;-76
2022/09/02 00:35:38;;;;;;;5.57;4.97;;;;;;;16.77;66.99;92822.31;2067367;69;20217;-76
2022/09/02 00:38:05;;;;;;;6.43;5.10;;;;;;;16.77;66.21;92817.38;2070883;69;20187;-77
2022/09/02 00:40:32;;;;;;;8.60;5.30;;;;;;;16.65;66.76;92825.38;2070468;69;20191;-77
2022/09/02 00:42:58;;;;;;;7.85;5.38;;;;;;;16.74;66.22;92815.81;2067353;69;20176;-78
2022/09/02 00:45:24;;;;;;;7.85;5.50;;;;;;;16.71;66.73;92810.66;2067315;69;20547;-77
2022/09/02 00:47:50;;;;;;;5.60;5.00;;;;;;;16.73;65.69;92814.34;2070796;69;20140;-75
2022/09/02 00:50:22;;;;;;;8.05;5.53;;;;;;;16.80;65.60;92817.44;2070642;69;20231;-78
2022/09/02 00:52:52;;;;;;;9.47;4.90;;;;;;;16.76;65.88;92807.34;2061768;69;20168;-77
2022/09/02 00:55:26;;;;;;;6.35;5.68;;;;;;;16.68;65.53;92804.19;2070638;69;20144;-77
2022/09/02 00:58:19;;;;;;;8.45;5.18;;;;;;;16.63;64.75;92805.41;2067915;69;20167;-78
2022/09/02 01:00:47;;;;;;;7.85;4.82;;;;;;;16.65;64.80;92804.75;2071259;69;20329;-76
2022/09/02 01:03:17;;;;;;;6.57;5.32;;;;;;;16.54;65.57;92803.63;2071353;69;20152;-77
2022/09/02 01:05:46;;;;;;;7.18;5.47;;;;;;;16.48;66.21;92806.19;2071334;69;20198;-77
2022/09/02 01:08:18;;;;;;;8.40;5.32;;;;;;;16.40;66.96;92809.44;2071260;69;20523;-76
2022/09/02 01:10:45;;;;;;;5.93;4.88;;;;;;;16.35;67.02;92816.31;2071106;69;20259;-77
2022/09/02 01:13:15;;;;;;;7.03;5.13;;;;;;;16.37;67.00;92810.75;2071230;69;20148;-77
2022/09/02 01:15:47;;;;;;;7.03;5.32;;;;;;;16.39;66.39;92812.91;2068045;69;20188;-76
2022/09/02 01:18:19;;;;;;;5.75;5.05;;;;;;;16.33;66.43;92809.84;2065201;69;20164;-76
2022/09/02 01:20:45;;;;;;;6.30;4.60;;;;;;;16.36;66.28;92820.66;2071258;69;20525;-76
2022/09/02 01:23:15;;;;;;;7.35;5.03;;;;;;;16.29;66.57;92818.91;2071471;69;20163;-75
2022/09/02 01:25:40;;;;;;;8.07;5.40;;;;;;;16.19;66.92;92816.38;2068122;69;20133;-76
2022/09/02 01:28:11;;;;;;;9.55;5.05;;;;;;;16.22;66.04;92817.94;2068066;69;20243;-76
2022/09/02 01:30:41;;;;;;;5.78;4.63;;;;;;;16.33;65.26;92815.53;2065236;69;20657;-76
2022/09/02 01:33:09;;;;;;;6.07;5.10;;;;;;;16.23;65.64;92815.84;2071419;69;20147;-77
2022/09/02 01:35:35;;;;;;;7.03;5.00;;;;;;;16.29;64.64;92813.25;2067918;69;20147;-76
2022/09/02 01:38:02;;;;;;;7.93;4.55;;;;;;;16.22;64.91;92808.69;2071232;69;20132;-75
2022/09/02 01:40:30;;;;;;;7.97;5.47;;;;;;;15.95;65.65;92806.84;2067609;69;20156;-77
2022/09/02 01:43:01;;;;;;;6.78;4.90;;;;;;;16.09;64.40;92798.22;2071102;69;20241;-77
2022/09/02 01:45:28;;;;;;;11.48;5.70;;;;;;;16.11;65.12;92804.69;2065092;69;20556;-77
2022/09/02 01:47:56;;;;;;;8.15;4.80;;;;;;;16.09;64.67;92801.03;2067776;69;20151;-75
2022/09/02 01:50:22;;;;;;;7.40;5.28;;;;;;;15.96;65.89;92800.53;2071037;69;20620;-75
2022/09/02 01:52:50;;;;;;;5.00;4.53;;;;;;;16.02;65.74;92805.72;2067931;69;20172;-76
2022/09/02 01:55:18;;;;;;;6.13;4.90;;;;;;;16.00;66.03;92802.81;2067777;69;20148;-76
2022/09/02 01:57:44;;;;;;;5.70;5.07;;;;;;;15.97;66.41;92804.81;2071217;69;20202;-76
2022/09/02 02:00:12;;;;;;;6.28;5.07;;;;;;;15.91;66.81;92793.22;2067849;69;20156;-76
2022/09/02 02:02:41;;;;;;;8.20;5.60;;;;;;;15.90;66.60;92799.53;2071679;69;20726;-76
2022/09/02 02:05:10;;;;;;;6.60;5.50;;;;;;;15.76;66.55;92802.50;2071471;69;20136;-75
2022/09/02 02:07:38;;;;;;;7.43;5.05;;;;;;;15.84;66.04;92797.16;2071315;69;20156;-78
2022/09/02 02:10:06;;;;;;;6.90;5.10;;;;;;;15.72;67.43;92796.66;2071025;69;20277;-75
2022/09/02 02:12:34;;;;;;;6.85;5.68;;;;;;;15.70;67.20;92791.59;2071108;69;20595;-77
2022/09/02 02:15:12;;;;;;;8.68;5.70;;;;;;;15.62;68.02;92802.56;2067870;69;20202;-76
2022/09/02 02:17:42;;;;;;;7.85;5.13;;;;;;;15.63;67.60;92787.03;2071345;69;20148;-75
2022/09/02 02:20:10;;;;;;;10.00;5.57;;;;;;;15.61;67.27;92794.69;2070935;69;20156;-76
2022/09/02 02:22:36;;;;;;;5.90;5.30;;;;;;;15.58;67.01;92795.97;2067875;69;20243;-74
2022/09/02 02:25:04;;;;;;;7.55;5.45;;;;;;;15.51;67.34;92786.47;2071097;69;20592;-77
2022/09/02 02:27:29;;;;;;;7.57;5.40;;;;;;;15.57;66.99;92778.22;2071192;69;20559;-77
2022/09/02 02:29:58;;;;;;;7.93;5.18;;;;;;;15.58;67.16;92781.78;2067568;69;20213;-75
2022/09/02 02:32:25;;;;;;;8.77;5.50;;;;;;;15.45;67.87;92784.13;2067951;69;20156;-77
2022/09/02 02:34:53;;;;;;;5.60;4.97;;;;;;;15.49;67.20;92772.94;2067880;69;20152;-75
2022/09/02 02:37:19;;;;;;;7.25;5.13;;;;;;;15.47;67.63;92777.78;2071330;69;20322;-76
2022/09/02 02:39:47;;;;;;;7.97;5.40;;;;;;;15.48;67.16;92779.25;2067771;69;20146;-77
2022/09/02 02:42:13;;;;;;;7.97;5.43;;;;;;;15.42;67.48;92774.03;2067859;69;20139;-77
2022/09/02 02:44:40;;;;;;;8.40;4.95;;;;;;;15.44;66.90;92776.22;2068110;69;20259;-76
2022/09/02 02:47:07;;;;;;;6.90;4.97;;;;;;;15.45;66.95;92772.03;2068009;69;20617;-77
2022/09/02 02:49:38;;;;;;;5.60;5.00;;;;;;;15.42;66.49;92774.03;2067777;69;20236;-77
2022/09/02 02:52:05;;;;;;;7.28;5.28;;;;;;;15.36;67.54;92770.22;2067938;69;20178;-76
2022/09/02 02:54:31;;;;;;;9.18;5.55;;;;;;;15.24;68.09;92765.44;2067742;69;20171;-76
2022/09/02 02:56:58;;;;;;;9.77;5.65;;;;;;;15.21;68.19;92761.09;2067912;69;20499;-76
2022/09/02 02:59:25;;;;;;;6.53;5.75;;;;;;;15.22;67.90;92768.22;2071122;69;20564;-77
2022/09/02 03:01:52;;;;;;;9.68;5.60;;;;;;;15.30;66.85;92767.09;2071289;69;20152;-78
2022/09/02 03:04:18;;;;;;;8.30;6.13;;;;;;;14.96;68.62;92764.19;2071390;69;20556;-78
2022/09/02 03:06:44;;;;;;;7.97;5.43;;;;;;;15.14;67.10;92767.13;2067782;69;20512;-76
2022/09/02 03:09:12;;;;;;;8.43;5.20;;;;;;;15.44;64.44;92762.81;2067549;69;20618;-74
2022/09/02 03:11:38;;;;;;;7.63;4.93;;;;;;;15.00;66.65;92756.59;2067741;69;20148;-77
2022/09/02 03:14:05;;;;;;;7.80;5.53;;;;;;;14.98;66.91;92753.69;2067637;69;20243;-77
2022/09/02 03:16:33;;;;;;;8.82;5.55;;;;;;;14.91;67.43;92748.38;2067611;69;20191;-76
2022/09/02 03:19:00;;;;;;;6.38;5.45;;;;;;;14.70;67.45;92750.25;2071181;69;20148;-74
2022/09/02 03:21:27;;;;;;;6.90;6.05;;;;;;;14.70;67.92;92738.91;2067744;69;20613;-75
2022/09/02 03:23:53;;;;;;;7.85;5.55;;;;;;;14.79;67.32;92739.28;2067658;69;20262;-77
2022/09/02 03:26:22;;;;;;;6.93;5.70;;;;;;;14.81;67.06;92737.28;2071041;69;20563;-77
2022/09/02 03:28:49;;;;;;;12.05;5.30;;;;;;;14.83;67.19;92739.47;2067768;69;20144;-76
2022/09/02 03:31:18;;;;;;;7.40;5.68;;;;;;;14.68;68.47;92740.94;2067622;69;20159;-78
2022/09/02 03:33:44;;;;;;;7.75;5.78;;;;;;;14.71;67.86;92734.72;2067789;69;20152;-77
2022/09/02 03:36:29;;;;;;;8.48;5.30;;;;;;;14.71;67.99;92737.56;2071280;69;20191;-79
2022/09/02 03:38:57;;;;;;;6.90;5.57;;;;;;;14.59;68.63;92736.28;2067890;69;20156;-78
2022/09/02 03:41:24;;;;;;;8.98;5.78;;;;;;;14.42;68.46;92732.63;2064839;69;20234;-79
2022/09/02 03:43:51;;;;;;;10.32;5.10;;;;;;;14.61;67.23;92742.00;2067811;69;20154;-75
2022/09/02 03:46:17;;;;;;;7.90;5.97;;;;;;;14.47;68.51;92737.13;2067850;69;20144;-77
2022/09/02 03:48:43;;;;;;;7.72;5.65;;;;;;;14.48;67.91;92747.13;2064816;69;20221;-78
2022/09/02 03:51:13;;;;;;;10.23;5.40;;;;;;;14.65;66.19;92742.94;2067724;69;20700;-77
2022/09/02 03:53:40;;;;;;;8.43;5.60;;;;;;;14.39;67.74;92742.44;2067895;69;20554;-78
2022/09/02 03:56:13;;;;;;;6.13;5.25;;;;;;;14.33;67.79;92741.38;2064897;69;20267;-78
2022/09/02 03:58:39;;;;;;;6.43;5.43;;;;;;;14.24;68.54;92735.34;2070976;69;20217;-76
2022/09/02 04:01:06;;;;;;;8.05;5.22;;;;;;;14.29;68.50;92741.19;2067691;69;20176;-78
2022/09/02 04:03:32;;;;;;;7.53;5.45;;;;;;;14.34;67.92;92743.59;2067494;69;20187;-75
2022/09/02 04:05:58;;;;;;;8.27;5.82;;;;;;;14.34;67.96;92745.69;2067855;69;20259;-78
2022/09/02 04:08:26;;;;;;;9.15;6.50;;;;;;;14.21;69.20;92741.56;2067755;69;20187;-78
2022/09/02 04:10:55;;;;;;;7.80;6.10;;;;;;;14.26;69.00;92746.03;2067553;69;20180;-78
2022/09/02 04:13:21;;;;;;;10.68;6.13;;;;;;;14.34;68.70;92745.69;2064330;69;20633;-77
2022/09/02 04:15:48;;;;;;;8.60;5.90;;;;;;;14.26;69.09;92742.47;2065464;69;20577;-77
2022/09/02 04:18:16;;;;;;;9.23;5.40;;;;;;;14.25;69.00;92747.41;2067731;69;20591;-74
2022/09/02 04:20:43;;;;;;;9.55;6.03;;;;;;;14.29;68.91;92744.03;2067628;69;20605;-75
2022/09/02 04:23:09;;;;;;;8.68;6.20;;;;;;;14.19;69.64;92750.66;2067906;69;20160;-75
2022/09/02 04:25:42;;;;;;;7.00;5.90;;;;;;;14.22;69.38;92751.50;2067524;69;20243;-77
2022/09/02 04:28:09;;;;;;;8.65;5.88;;;;;;;14.35;68.50;92747.16;2064305;69;20298;-78
2022/09/02 04:30:40;;;;;;;6.30;5.43;;;;;;;14.22;69.49;92752.22;2064636;69;20157;-77
2022/09/02 04:33:06;;;;;;;7.50;5.68;;;;;;;14.23;69.61;92742.38;2065115;69;20239;-80
2022/09/02 04:35:34;;;;;;;10.23;5.90;;;;;;;14.28;68.76;92742.56;2065532;69;20171;-78
2022/09/02 04:38:00;;;;;;;10.88;5.72;;;;;;;14.25;69.83;92741.75;2068137;69;20176;-77
2022/09/02 04:40:26;;;;;;;10.63;5.70;;;;;;;14.18;69.95;92745.66;2068063;69;20625;-75
2022/09/02 04:42:54;;;;;;;8.15;5.90;;;;;;;14.30;68.87;92745.50;2068067;69;20172;-73
2022/09/02 04:45:20;;;;;;;8.10;5.75;;;;;;;14.26;70.17;92743.22;2067947;69;20558;-75
2022/09/02 04:47:46;;;;;;;7.00;5.65;;;;;;;14.22;70.30;92746.56;2067954;69;20190;-76
2022/09/02 04:50:14;;;;;;;10.77;5.97;;;;;;;14.35;69.66;92753.56;2068158;69;20172;-77
2022/09/02 04:52:55;;;;;;;7.43;5.85;;;;;;;14.01;70.06;92749.06;2068749;69;20477;-76
2022/09/02 04:55:24;;;;;;;11.85;6.32;;;;;;;13.97;70.31;92761.66;2068009;69;20167;-78
2022/09/02 04:57:51;;;;;;;7.07;5.75;;;;;;;14.21;69.43;92750.78;2068042;69;20148;-80
2022/09/02 05:00:18;;;;;;;8.65;6.15;;;;;;;14.23;68.71;92756.53;2065420;69;20198;-77
2022/09/02 05:02:45;;;;;;;7.75;5.93;;;;;;;14.24;69.10;92755.16;2065559;69;20209;-77
2022/09/02 05:05:12;;;;;;;7.00;5.55;;;;;;;14.41;67.83;92756.66;2065223;69;20172;-79
2022/09/02 05:07:38;;;;;;;8.68;5.10;;;;;;;14.43;68.20;92758.84;2071468;69;20648;-75
2022/09/02 05:10:07;;;;;;;7.63;5.68;;;;;;;14.44;68.11;92766.72;2071601;69;20148;-73
2022/09/02 05:12:40;;;;;;;8.90;5.93;;;;;;;14.27;69.07;92763.75;2071542;69;20598;-75
2022/09/02 05:15:08;;;;;;;9.32;5.80;;;;;;;14.34;68.67;92760.59;2067982;69;20152;-77
2022/09/02 05:17:35;;;;;;;9.15;6.28;;;;;;;14.52;67.31;92772.06;2068236;69;20150;-76
2022/09/02 05:20:04;;;;;;;11.88;6.20;;;;;;;14.37;68.68;92767.81;2071634;69;20136;-75
2022/09/02 05:22:32;;;;;;;6.65;5.68;;;;;;;14.53;68.10;92764.31;2068123;69;20163;-76
2022/09/02 05:24:59;;;;;;;10.63;5.90;;;;;;;14.62;67.80;92766.91;2065067;69;20576;-77
2022/09/02 05:27:27;;;;;;;9.13;6.03;;;;;;;14.60;68.29;92760.38;2071416;69;20159;-76
2022/09/02 05:29:55;;;;;;;11.38;6.50;;;;;;;14.55;68.79;92756.63;2068039;69;20180;-78
2022/09/02 05:32:22;;;;;;;12.00;6.10;;;;;;;14.70;68.42;92758.75;2067953;69;20491;-78
2022/09/02 05:34:49;;;;;;;8.60;5.95;;;;;;;14.85;68.42;92762.25;2067963;69;20148;-77
2022/09/02 05:37:15;;;;;;;9.88;6.60;;;;;;;14.70;68.92;92760.84;2067898;69;20179;-78
2022/09/02 05:39:42;;;;;;;9.32;6.75;;;;;;;14.71;68.69;92753.84;2067971;69;20172;-76
2022/09/02 05:42:10;;;;;;;11.02;7.15;;;;;;;14.54;69.04;92760.13;2067787;69;20191;-77
2022/09/02 05:44:38;;;;;;;11.02;7.13;;;;;;;14.67;68.55;92753.66;2067991;69;20148;-76
2022/09/02 05:47:05;;;;;;;10.88;7.03;;;;;;;14.76;68.33;92751.94;2071214;69;20568;-77
2022/09/02 05:49:31;;;;;;;10.40;6.90;;;;;;;14.80;67.82;92758.50;2067946;69;20519;-77
2022/09/02 05:52:04;;;;;;;8.95;6.55;;;;;;;14.85;68.35;92765.84;2070638;69;20147;-76
2022/09/02 05:54:38;;;;;;;8.23;7.22;;;;;;;14.81;69.01;92759.25;2071325;69;20174;-77
2022/09/02 05:57:10;;;;;;;7.28;6.53;;;;;;;14.87;69.13;92765.91;2071319;69;20156;-76
2022/09/02 05:59:41;;;;;;;9.77;6.85;;;;;;;14.99;68.45;92765.75;2071370;69;20179;-78
2022/09/02 06:02:10;;;;;;;9.18;6.82;;;;;;;14.98;69.33;92767.84;2071358;69;20209;-76
2022/09/02 06:04:47;;;;;;;9.85;6.20;;;;;;;14.97;69.39;92766.38;2071302;69;20197;-76
2022/09/02 06:07:14;;;;;;;10.50;6.00;;;;;;;15.05;68.51;92768.13;2071374;69;20214;-78
2022/09/02 06:09:43;;;;;;;8.43;5.72;;;;;;;15.05;68.05;92766.00;2074807;69;20155;-77
2022/09/02 06:12:11;;;;;;;9.25;7.57;;;;;;;14.45;70.52;92773.84;2071426;69;20156;-78
2022/09/02 06:14:37;;;;;;;11.15;7.15;;;;;;;14.35;71.40;92762.06;2068543;69;20250;-79
2022/09/02 06:17:06;;;;;;;13.30;6.90;;;;;;;14.45;70.72;92764.63;2074754;69;20140;-78
2022/09/02 06:19:39;;;;;;;8.88;6.95;;;;;;;14.34;70.03;92759.84;2071369;69;20239;-78
2022/09/02 06:22:05;;;;;;;10.02;7.57;;;;;;;14.14;71.97;92762.44;2074551;69;20160;-76
2022/09/02 06:24:35;;;;;;;10.93;7.70;;;;;;;14.54;69.61;92768.63;2074782;69;20132;-78
2022/09/02 06:27:06;;;;;;;9.77;7.35;;;;;;;14.63;69.44;92762.69;2071461;69;20224;-78
2022/09/02 06:29:36;;;;;;;8.75;6.93;;;;;;;14.58;69.71;92761.03;2071457;69;20548;-75
2022/09/02 06:32:05;;;;;;;8.93;7.13;;;;;;;14.64;68.41;92760.59;2071531;69;20168;-78
2022/09/02 06:34:30;;;;;;;10.82;7.32;;;;;;;14.53;69.87;92765.06;2071507;69;20151;-86
2022/09/02 06:36:57;;;;;;;11.02;7.45;;;;;;;14.53;69.98;92764.31;2074692;69;20151;-78
2022/09/02 06:39:24;;;;;;;13.75;7.30;;;;;;;14.52;70.11;92760.00;2071280;69;20575;-76
2022/09/02 06:41:53;;;;;;;8.60;7.28;;;;;;;14.54;69.81;92755.19;2071257;69;20231;-74
2022/09/02 06:44:21;;;;;;;10.15;7.57;;;;;;;14.54;69.85;92751.63;2071251;69;20180;-74
2022/09/02 06:46:56;;;;;;;10.75;7.78;;;;;;;14.67;70.83;92754.38;2071316;69;20148;-75
2022/09/02 06:49:24;;;;;;;8.23;6.78;;;;;;;15.00;70.77;92758.69;2071217;69;20155;-76
2022/09/02 06:51:52;;;;;;;8.43;7.35;;;;;;;15.33;69.47;92758.03;2071267;69;20206;-75
2022/09/02 06:54:20;;;;;;;8.68;7.15;;;;;;;15.55;70.10;92755.44;2071035;69;20168;-77
2022/09/02 06:56:50;;;;;;;7.60;6.80;;;;;;;15.82;69.46;92754.50;2074713;69;20144;-76
2022/09/02 06:59:22;;;;;;;12.55;6.80;;;;;;;16.19;67.94;92759.59;2068639;69;20147;-78
2022/09/02 07:01:51;;;;;;;6.82;5.75;;;;;;;16.44;66.66;92749.19;2068568;69;20167;-76
2022/09/02 07:07:10;;;;;;;9.40;4.90;;;;;;;17.14;66.13;92758.31;2071290;69;20190;-74
2022/09/02 07:09:46;;;;;;;9.35;4.70;;;;;;;17.19;64.11;92742.88;2071176;69;20155;-77
2022/09/02 07:12:16;;;;;;;7.65;4.97;;;;;;;17.28;63.43;92747.47;2071279;69;20500;-76
2022/09/02 07:14:50;;;;;;;6.55;5.10;;;;;;;17.54;62.91;92745.56;2071143;69;20663;-74
2022/09/02 07:17:22;;;;;;;8.65;5.55;;;;;;;17.43;62.32;92748.72;2071338;69;20140;-75
2022/09/02 07:19:56;;;;;;;6.63;5.28;;;;;;;17.57;62.01;92742.81;2074762;69;20148;-74
2022/09/02 07:22:22;;;;;;;9.38;4.50;;;;;;;17.81;59.51;92737.25;2071196;69;20207;-74
2022/09/02 07:24:48;;;;;;;7.55;4.28;;;;;;;17.92;58.78;92741.91;2071036;69;20290;-76
2022/09/02 07:27:14;;;;;;;6.03;3.60;;;;;;;18.49;58.22;92744.53;2071234;69;20611;-77
2022/09/02 07:29:47;;;;;;;8.73;3.80;;;;;;;18.68;58.08;92739.41;2074635;69;20170;-76
2022/09/02 07:32:15;;;;;;;5.85;3.53;;;;;;;18.98;56.89;92726.09;2071264;69;20235;-75
2022/09/02 07:34:42;;;;;;;8.00;3.65;;;;;;;20.13;54.06;92738.59;2071087;69;20158;-75
2022/09/02 07:37:10;;;;;;;10.48;3.70;;;;;;;20.40;54.15;92731.44;2071069;69;20251;-76
2022/09/02 07:39:36;;;;;;;6.35;3.80;;;;;;;20.06;55.01;92732.00;2070940;69;20143;-76
2022/09/02 07:42:03;;;;;;;5.78;3.80;;;;;;;20.40;53.65;92722.84;2074651;69;20148;-75
2022/09/02 07:44:31;;;;;;;8.40;3.75;;;;;;;21.11;50.76;92723.81;2071109;69;20140;-76
2022/09/02 07:46:57;;;;;;;6.30;3.28;;;;;;;20.70;51.16;92717.16;2074570;69;20233;-76
2022/09/02 07:49:23;;;;;;;5.85;2.97;;;;;;;20.45;53.62;92709.38;2071173;69;20194;-77
2022/09/02 07:51:51;;;;;;;4.30;3.05;;;;;;;20.29;52.58;92707.56;2068460;69;20156;-75
2022/09/02 07:54:20;;;;;;;5.78;3.17;;;;;;;20.23;52.51;92715.28;2071022;69;20251;-75
2022/09/02 07:56:48;;;;;;;6.47;2.90;;;;;;;21.49;52.11;92697.44;2071129;69;20239;-76
2022/09/02 07:59:16;;;;;;;3.08;2.75;;;;;;;21.34;50.90;92704.28;2074442;69;20144;-76
2022/09/02 08:01:44;;;;;;;4.30;2.83;;;;;;;21.36;51.39;92702.19;2074522;69;20155;-74
2022/09/02 08:04:10;;;;;;;5.03;2.88;;;;;;;21.63;49.63;92705.59;2071103;69;20213;-74
2022/09/02 08:06:36;;;;;;;2.97;2.42;;;;;;;22.02;49.75;92704.91;2071488;69;20205;-75
2022/09/02 08:09:10;;;;;;;3.28;2.38;;;;;;;21.64;46.76;92696.31;2075051;69;20144;-75
2022/09/02 08:11:43;;;;;;;2.60;2.40;;;;;;;22.65;47.88;92695.97;2075208;69;20568;-75
2022/09/02 08:14:12;;;;;;;5.20;2.88;;;;;;;23.45;45.83;92694.94;2075298;69;20148;-77
2022/09/02 08:16:39;;;;;;;4.63;2.30;;;;;;;23.46;46.89;92685.66;2074953;69;20162;-76
2022/09/02 08:19:06;;;;;;;6.43;2.83;;;;;;;23.04;46.15;92691.53;2074983;69;20163;-77
2022/09/02 08:21:32;;;;;;;2.70;2.28;;;;;;;23.33;44.09;92693.38;2071751;69;20495;-75
2022/09/02 08:23:59;;;;;;;4.18;2.00;;;;;;;23.01;42.86;92698.69;2075013;69;20204;-76
2022/09/02 08:26:27;;;;;;;3.28;2.20;;;;;;;23.26;45.17;92688.25;2074837;69;20235;-77
2022/09/02 08:28:54;;;;;;;3.45;2.13;;;;;;;23.01;41.71;92687.19;2075088;69;20136;-75
2022/09/02 08:31:20;;;;;;;2.85;2.20;;;;;;;23.15;43.38;92681.66;2074979;69;20148;-74
2022/09/02 08:33:46;;;;;;;2.22;2.03;;;;;;;24.32;43.04;92690.19;2074950;69;20673;-77
2022/09/02 08:36:14;;;;;;;2.15;2.00;;;;;;;25.50;38.63;92683.88;2074874;69;20182;-75
2022/09/02 08:38:41;;;;;;;2.50;2.30;;;;;;;24.22;41.67;92677.88;2074953;69;20147;-74
2022/09/02 08:41:22;;;;;;;2.80;2.05;;;;;;;23.82;41.80;92676.03;2074801;69;20175;-75
2022/09/02 08:43:51;;;;;;;2.45;1.90;;;;;;;25.89;40.43;92667.50;2074858;69;20140;-74
2022/09/02 08:46:18;;;;;;;5.38;2.10;;;;;;;25.49;38.30;92665.88;2074926;69;20167;-76
2022/09/02 08:48:49;;;;;;;5.05;2.50;;;;;;;24.74;39.12;92659.63;2074942;69;20176;-74
2022/09/02 08:51:36;;;;;;;2.30;2.10;;;;;;;25.65;40.19;92664.50;2071519;69;20128;-76
2022/09/02 08:54:19;;;;;;;2.80;2.00;;;;;;;25.24;40.35;92662.13;2074699;69;20135;-75
2022/09/02 08:56:44;;;;;;;2.28;2.08;;;;;;;25.72;40.69;92655.16;2074933;69;20317;-75
2022/09/02 08:59:14;;;;;;;2.65;2.30;;;;;;;25.75;36.69;92655.88;2074870;69;20719;-74
2022/09/02 09:01:48;;;;;;;2.38;1.98;;;;;;;25.22;38.56;92647.00;2074833;69;20144;-75
2022/09/02 09:04:29;;;;;;;3.40;2.28;;;;;;;28.23;34.94;92645.56;2074876;69;20147;-75
2022/09/02 09:07:28;;;;;;;3.65;2.30;;;;;;;28.80;33.94;92648.03;2075087;69;20158;-76
2022/09/02 09:10:00;;;;;;;1.98;1.80;;;;;;;28.38;35.10;92646.19;2073548;69;20652;-75
2022/09/02 09:12:47;;;;;;;2.95;2.10;;;;;;;28.74;34.53;92640.13;2074886;69;20175;-75
2022/09/02 09:15:22;;;;;;;2.20;2.00;;;;;;;27.17;36.14;92640.16;2074893;69;20164;-75
2022/09/02 09:17:57;;;;;;;2.20;2.00;;;;;;;27.21;37.87;92631.50;2074802;69;20143;-75
2022/09/02 09:20:29;;;;;;;4.43;2.40;;;;;;;26.21;35.46;92625.75;2071414;69;20151;-74
2022/09/02 09:22:58;;;;;;;2.97;2.23;;;;;;;25.99;37.20;92629.31;2074903;69;20515;-76
2022/09/02 09:25:31;;;;;;;4.43;2.10;;;;;;;27.09;35.11;92617.81;2074725;69;20178;-75
2022/09/02 09:28:00;;;;;;;2.15;1.95;;;;;;;27.44;34.95;92614.81;2074885;69;20140;-74
2022/09/02 09:30:27;;;;;;;2.25;1.88;;;;;;;27.64;36.89;92611.13;2074823;69;20175;-76
2022/09/02 09:33:03;;;;;;;2.25;2.00;;;;;;;25.90;36.39;92607.66;2074950;69;20278;-77
2022/09/02 09:35:48;;;;;;;3.55;2.20;;;;;;;27.25;36.31;92608.38;2075290;69;20491;-78
2022/09/02 09:38:29;;;;;;;3.55;2.20;;;;;;;28.02;34.59;92608.03;2071587;69;20730;-77
2022/09/02 09:41:19;;;;;;;2.35;2.10;;;;;;;28.09;35.44;92602.97;2071373;69;20176;-77
2022/09/02 09:43:46;;;;;;;2.45;1.85;;;;;;;29.18;33.30;92597.00;2074756;69;20190;-76
2022/09/02 09:46:27;;;;;;;3.78;2.00;;;;;;;28.06;34.58;92598.63;2074900;69;20223;-77
2022/09/02 09:48:53;;;;;;;2.72;2.05;;;;;;;28.54;33.90;92593.94;2074825;69;20632;-77
2022/09/02 09:51:19;;;;;;;2.13;1.90;;;;;;;28.19;32.75;92590.59;2074788;69;20223;-77
2022/09/02 09:53:44;;;;;;;3.92;2.00;;;;;;;28.20;34.23;92586.97;2074840;69;20182;-77
2022/09/02 09:56:13;;;;;;;2.90;1.98;;;;;;;28.03;32.50;92585.63;2074748;69;20160;-78
2022/09/02 09:58:39;;;;;;;2.17;1.92;;;;;;;29.03;33.47;92579.78;2074764;69;20175;-77
2022/09/02 10:01:33;;;;;;;2.38;1.85;;;;;;;29.12;31.79;92580.41;2074786;69;20148;-75
2022/09/02 10:04:09;;;;;;;3.72;1.70;;;;;;;29.26;33.29;92579.53;2074940;69;20144;-76
2022/09/02 10:06:47;;;;;;;3.10;2.00;;;;;;;29.63;32.18;92574.03;2071346;69;20583;-76
2022/09/02 10:09:18;;;;;;;2.90;2.00;;;;;;;28.14;32.27;92563.13;2071322;69;20204;-76
2022/09/02 10:11:57;;;;;;;2.50;1.90;;;;;;;28.59;30.43;92558.47;2074702;69;20195;-77
2022/09/02 10:14:32;;;;;;;2.10;1.90;;;;;;;30.22;31.01;92558.03;2074709;69;20166;-76
2022/09/02 10:17:46;;;;;;;4.53;1.83;;;;;;;30.49;29.93;92549.59;2074714;69;20154;-77
2022/09/02 10:20:22;;;;;;;3.78;1.88;;;;;;;31.14;29.99;92557.91;2071570;69;20180;-77
2022/09/02 10:22:57;;;;;;;4.45;2.00;;;;;;;30.97;29.13;92550.97;2074684;69;20129;-77
2022/09/02 10:25:32;;;;;;;3.67;1.88;;;;;;;31.74;29.74;92542.94;2074667;69;20154;-78
2022/09/02 10:28:32;;;;;;;3.65;1.83;;;;;;;31.95;29.78;92540.34;2071136;69;20150;-77
2022/09/02 10:31:10;;;;;;;1.88;1.60;;;;;;;32.74;29.42;92534.13;2071023;69;20116;-76
2022/09/02 10:34:16;;;;;;;2.50;1.80;;;;;;;32.28;28.64;92533.75;2071003;69;20184;-76
2022/09/02 10:37:06;;;;;;;2.13;1.60;;;;;;;32.52;26.32;92530.28;2068588;69;20144;-76
2022/09/02 10:39:51;;;;;;;2.47;1.80;;;;;;;33.63;28.00;92534.69;2071142;69;20159;-76
2022/09/02 10:42:42;;;;;;;2.45;1.88;;;;;;;33.58;27.43;92527.50;2070697;69;20611;-75
2022/09/02 10:45:33;;;;;;;1.90;1.63;;;;;;;33.29;26.36;92521.75;2064620;69;20223;-76
2022/09/02 10:48:15;;;;;;;1.50;1.27;;;;;;;32.90;25.93;92516.22;2071410;69;20201;-77
2022/09/02 10:51:05;;;;;;;2.15;1.48;;;;;;;34.03;26.34;92516.75;2071172;69;20579;-74
2022/09/02 10:53:52;;;;;;;2.15;1.48;;;;;;;35.85;24.22;92509.13;2071166;69;20136;-75
2022/09/02 10:56:23;;;;;;;2.03;1.60;;;;;;;36.92;23.42;92513.78;2070897;69;20219;-75
2022/09/02 10:59:04;;;;;;;3.45;1.30;;;;;;;36.94;21.72;92511.50;2067788;69;20514;-75
2022/09/02 11:01:48;;;;;;;4.00;1.50;;;;;;;37.63;21.68;92507.78;2071210;69;20168;-75
2022/09/02 11:04:46;;;;;;;2.30;1.40;;;;;;;40.44;18.71;92504.84;2070789;69;20575;-75
2022/09/02 11:07:18;;;;;;;2.53;1.20;;;;;;;39.14;19.22;92500.66;2071263;69;20284;-76
2022/09/02 11:09:58;;;;;;;3.75;1.20;;;;;;;39.18;18.99;92497.53;2070953;69;20179;-75
2022/09/02 11:12:39;;;;;;;1.27;1.17;;;;;;;41.55;18.84;92491.06;2070971;69;20175;-75
2022/09/02 11:15:18;;;;;;;3.70;1.20;;;;;;;42.58;16.68;92494.34;2071241;69;20206;-75
2022/09/02 11:18:03;;;;;;;4.03;1.42;;;;;;;43.94;17.20;92501.59;2064313;69;20165;-75
2022/09/02 11:20:48;;;;;;;2.67;1.40;;;;;;;45.27;16.33;92505.38;2064448;69;20141;-75
2022/09/02 11:23:29;;;;;;;2.03;1.20;;;;;;;41.16;19.39;92486.75;2066590;69;20482;-75
2022/09/02 11:26:07;;;;;;;2.03;1.30;;;;;;;41.87;18.44;92484.72;2064443;69;20140;-75
2022/09/02 11:28:33;;;;;;;1.52;1.23;;;;;;;43.89;16.97;92489.31;2064504;69;20157;-76
2022/09/02 11:31:14;;;;;;;2.88;1.40;;;;;;;40.86;19.02;92489.22;2066654;69;20153;-76
2022/09/02 11:33:58;;;;;;;;;;;;;;;43.73;16.42;92488.19;2063859;69;20551;-75
2022/09/02 11:36:25;;;;;;;4.05;1.30;;;;;;;43.56;16.96;92482.69;2064214;69;20164;-75
2022/09/02 11:38:51;;;;;;;1.73;1.30;;;;;;;44.89;15.60;92488.13;2063671;69;20144;-75
2022/09/02 11:41:39;;;;;;;2.85;1.35;;;;;;;43.84;16.31;92482.97;2064061;69;20164;-76
2022/09/02 11:44:29;;;;;;;1.50;1.20;;;;;;;39.32;20.83;92473.25;2063726;69;20205;-76
2022/09/02 11:47:17;;;;;;;2.53;1.27;;;;;;;39.92;19.17;92476.03;2063892;69;20618;-74
2022/09/02 11:49:55;;;;;;;2.55;1.10;;;;;;;43.71;17.58;92478.72;2064371;69;20132;-80
2022/09/02 11:52:24;;;;;;;1.92;1.30;;;;;;;42.33;18.58;92475.19;2064727;69;20152;-80
2022/09/02 11:55:03;;;;;;;2.55;1.23;;;;;;;38.79;20.31;92464.16;2066302;69;20505;-76